New Vision — 3FSQ9 — position and weather

sailwx.info

Track history (hours):
 
Tides and Currents Weather Stations Pressure Air Temp Water Temp Dewpoint Dewpoint Depression Visibility Wind Speed Wind Dir Waves Ship Positions

New Vision

Last reported at 2014-Jul-29 06:32 UTC. Time now 2014-Jul-29 06:45 UTC.
Position N 29°16' W 094°28'.

Length 189 m; draft 6.4 m.

Type: Cargo ship. MMSI: 357764000.

Date/timePositionNaut miles runAvg speedWind from/ knotsBaromVisibWave heightAir tempDewpointWater temp
2014-Jul-29 06:32N 29°16' W 094°28'0 0.0
2014-Jul-29 05:32N 29°16' W 094°28'0 0.0
2014-Jul-29 04:08N 29°16' W 094°28'13 0.5
2014-Jul-27 23:32N 29°20' W 094°41'1010.5
2014-Jul-27 22:32N 29°27' W 094°51'1111.4
2014-Jul-27 21:33N 29°37' W 094°57'9 9.0
2014-Jul-27 20:33N 29°44' W 095°03'5 5.4
2014-Jul-27 19:33N 29°44' W 095°09'4 4.3
2014-Jul-27 18:33N 29°43' W 095°14'1 1.2
2014-Jul-27 17:33N 29°44' W 095°13'0 0.0
2014-Jul-27 16:30N 29°44' W 095°13'0 0.0
2014-Jul-27 15:33N 29°44' W 095°13'0 0.0
2014-Jul-27 14:33N 29°44' W 095°13'0 0.0
2014-Jul-27 13:33N 29°44' W 095°13'0 0.0
2014-Jul-27 12:33N 29°44' W 095°13'0 0.0
2014-Jul-27 11:33N 29°44' W 095°13'0 0.0
2014-Jul-27 10:33N 29°44' W 095°13'0 0.0
2014-Jul-27 09:33N 29°44' W 095°13'0 0.0
2014-Jul-27 08:33N 29°44' W 095°13'0 0.0
2014-Jul-27 07:33N 29°44' W 095°13'0 0.0
2014-Jul-27 06:33N 29°44' W 095°13'0 0.0
2014-Jul-27 05:33N 29°44' W 095°13'0 0.0
2014-Jul-27 04:33N 29°44' W 095°13'0 0.0
2014-Jul-27 03:33N 29°44' W 095°13'0 0.0
2014-Jul-27 02:33N 29°44' W 095°13'0 0.0
2014-Jul-27 01:32N 29°44' W 095°13'0 0.0
2014-Jul-27 00:32N 29°44' W 095°13'0 0.0
2014-Jul-26 23:32N 29°44' W 095°13'0 0.0
2014-Jul-26 22:32N 29°44' W 095°13'0 0.0
2014-Jul-26 21:32N 29°44' W 095°13'0 0.0
2014-Jul-26 20:32N 29°44' W 095°13'0 0.0
2014-Jul-26 19:32N 29°44' W 095°13'0 0.0
2014-Jul-26 18:32N 29°44' W 095°13'0 0.0
2014-Jul-26 17:32N 29°44' W 095°13'0 0.0
2014-Jul-26 16:32N 29°44' W 095°13'0 0.0
2014-Jul-26 15:32N 29°44' W 095°13'0 0.0
2014-Jul-26 14:32N 29°44' W 095°13'0 0.0
2014-Jul-26 13:32N 29°44' W 095°13'0 0.0
2014-Jul-26 12:32N 29°44' W 095°13'0 0.0
2014-Jul-26 11:32N 29°44' W 095°13'0 0.0
2014-Jul-26 10:32N 29°44' W 095°13'0 0.0
2014-Jul-26 09:32N 29°44' W 095°13'0 0.0
2014-Jul-26 08:32N 29°44' W 095°13'0 0.0
2014-Jul-26 07:32N 29°44' W 095°13'0 0.0
2014-Jul-26 06:32N 29°44' W 095°13'0 0.0
2014-Jul-26 05:32N 29°44' W 095°13'0 0.0
2014-Jul-26 04:32N 29°44' W 095°13'0 0.0
2014-Jul-26 03:32N 29°44' W 095°13'0 0.0
2014-Jul-26 02:32N 29°44' W 095°13'0 0.0
2014-Jul-26 01:32N 29°44' W 095°13'0 0.0
2014-Jul-26 00:32N 29°44' W 095°13'0 0.0
2014-Jul-25 23:32N 29°44' W 095°13'0 0.0
2014-Jul-25 22:32N 29°44' W 095°13'0 0.0
2014-Jul-25 21:32N 29°44' W 095°13'0 0.0
2014-Jul-25 20:32N 29°44' W 095°13'0 0.0
2014-Jul-25 19:32N 29°44' W 095°13'0 0.0
2014-Jul-25 18:32N 29°44' W 095°13'0 0.0
2014-Jul-25 17:32N 29°44' W 095°13'0 0.0
2014-Jul-25 16:32N 29°44' W 095°13'0 0.0
2014-Jul-25 15:32N 29°44' W 095°13'0 0.0
2014-Jul-25 14:32N 29°44' W 095°13'0 0.0
2014-Jul-25 13:32N 29°44' W 095°13'0 0.0
2014-Jul-25 12:32N 29°44' W 095°13'0 0.0
2014-Jul-25 11:31N 29°44' W 095°13'0 0.0
2014-Jul-25 10:31N 29°44' W 095°13'0 0.0
2014-Jul-25 09:31N 29°44' W 095°13'0 0.0
2014-Jul-25 08:31N 29°44' W 095°13'0 0.0
2014-Jul-25 07:31N 29°44' W 095°13'0 0.0
2014-Jul-25 06:31N 29°44' W 095°13'0 0.0
2014-Jul-25 05:31N 29°44' W 095°13'0 0.0
2014-Jul-25 04:31N 29°44' W 095°13'0 0.0
2014-Jul-25 03:31N 29°44' W 095°13'0 0.0
2014-Jul-25 02:31N 29°44' W 095°13'0 0.0
2014-Jul-25 01:31N 29°44' W 095°13'0 0.0
2014-Jul-25 00:31N 29°44' W 095°13'0 0.0
2014-Jul-24 23:31N 29°44' W 095°13'0 0.0
2014-Jul-24 22:31N 29°44' W 095°13'0 0.0
2014-Jul-24 21:31N 29°44' W 095°13'0 0.0
2014-Jul-24 20:31N 29°44' W 095°13'0 0.0
2014-Jul-24 19:31N 29°44' W 095°13'0 0.0
2014-Jul-24 18:31N 29°44' W 095°13'0 0.0
2014-Jul-24 17:31N 29°44' W 095°13'0 0.0
2014-Jul-24 16:31N 29°44' W 095°13'0 0.0
2014-Jul-24 15:31N 29°44' W 095°13'0 0.0
2014-Jul-24 14:31N 29°44' W 095°13'0 0.0
2014-Jul-24 13:31N 29°44' W 095°13'0 0.0
2014-Jul-24 12:31N 29°44' W 095°13'0 0.0
2014-Jul-24 11:31N 29°44' W 095°13'0 0.0
2014-Jul-24 10:31N 29°44' W 095°13'0 0.0
2014-Jul-24 09:31N 29°44' W 095°13'0 0.0
2014-Jul-24 08:31N 29°44' W 095°13'0 0.0
2014-Jul-24 07:31N 29°44' W 095°13'0 0.0
2014-Jul-24 06:31N 29°44' W 095°13'0 0.0
2014-Jul-24 05:31N 29°44' W 095°13'0 0.0
2014-Jul-24 04:31N 29°44' W 095°13'0 0.0
2014-Jul-24 03:31N 29°44' W 095°13'0 0.0
2014-Jul-24 02:31N 29°44' W 095°13'0 0.0
2014-Jul-24 01:31N 29°44' W 095°13'0 0.0
2014-Jul-24 00:31N 29°44' W 095°13'0 0.0
2014-Jul-23 23:34N 29°44' W 095°13'0 0.0
2014-Jul-23 22:33N 29°44' W 095°13'0 0.0
2014-Jul-23 21:33N 29°44' W 095°13'0 0.0
2014-Jul-23 20:33N 29°44' W 095°13'0 0.0
2014-Jul-23 19:33N 29°44' W 095°13'0 0.0
2014-Jul-23 18:33N 29°44' W 095°13'0 0.0
2014-Jul-23 17:33N 29°44' W 095°13'0 0.0
2014-Jul-23 16:33N 29°44' W 095°13'0 0.0
2014-Jul-23 15:33N 29°44' W 095°13'0 0.0
2014-Jul-23 14:33N 29°44' W 095°13'0 0.0
2014-Jul-23 13:33N 29°44' W 095°13'0 0.0
2014-Jul-23 12:33N 29°44' W 095°13'0 0.0
2014-Jul-23 11:33N 29°44' W 095°13'19921991.7
2014-Jul-23 10:33N 62°56' W 095°13'19921990.6
2014-Jul-23 09:33N 29°44' W 095°13'0 0.0
2014-Jul-23 08:33N 29°44' W 095°13'0 0.0
2014-Jul-23 07:33N 29°44' W 095°13'0 0.0
2014-Jul-23 06:33N 29°44' W 095°13'0 0.0
2014-Jul-23 05:33N 29°44' W 095°13'0 0.1
2014-Jul-23 04:33N 29°44' W 095°13'4 4.0
2014-Jul-23 03:33N 29°44' W 095°08'4 4.4
2014-Jul-23 02:34N 29°44' W 095°03'6 5.6
2014-Jul-23 01:33N 29°40' W 094°59'9 8.6
2014-Jul-23 00:34N 29°33' W 094°54'8 8.1
2014-Jul-22 23:33N 29°25' W 094°50'  
Track history (hours):
 
Tides and Currents Weather Stations Pressure Air Temp Water Temp Dewpoint Dewpoint Depression Visibility Wind Speed Wind Dir Waves Ship Positions

New Vision

Last reported at 2014-Jul-29 06:32 UTC. Time now 2014-Jul-29 06:45 UTC.
Position N 29°16' W 094°28'.

Length 189 m; draft 6.4 m.

Type: Cargo ship. MMSI: 357764000.

Date/timePositionNaut miles runAvg speedWind from/ knotsBaromVisibWave heightAir tempDewpointWater temp
2014-Jul-29 06:32N 29°16' W 094°28'0 0.0
2014-Jul-29 05:32N 29°16' W 094°28'0 0.0
2014-Jul-29 04:08N 29°16' W 094°28'13 0.5
2014-Jul-27 23:32N 29°20' W 094°41'1010.5
2014-Jul-27 22:32N 29°27' W 094°51'1111.4
2014-Jul-27 21:33N 29°37' W 094°57'9 9.0
2014-Jul-27 20:33N 29°44' W 095°03'5 5.4
2014-Jul-27 19:33N 29°44' W 095°09'4 4.3
2014-Jul-27 18:33N 29°43' W 095°14'1 1.2
2014-Jul-27 17:33N 29°44' W 095°13'0 0.0
2014-Jul-27 16:30N 29°44' W 095°13'0 0.0
2014-Jul-27 15:33N 29°44' W 095°13'0 0.0
2014-Jul-27 14:33N 29°44' W 095°13'0 0.0
2014-Jul-27 13:33N 29°44' W 095°13'0 0.0
2014-Jul-27 12:33N 29°44' W 095°13'0 0.0
2014-Jul-27 11:33N 29°44' W 095°13'0 0.0
2014-Jul-27 10:33N 29°44' W 095°13'0 0.0
2014-Jul-27 09:33N 29°44' W 095°13'0 0.0
2014-Jul-27 08:33N 29°44' W 095°13'0 0.0
2014-Jul-27 07:33N 29°44' W 095°13'0 0.0
2014-Jul-27 06:33N 29°44' W 095°13'0 0.0
2014-Jul-27 05:33N 29°44' W 095°13'0 0.0
2014-Jul-27 04:33N 29°44' W 095°13'0 0.0
2014-Jul-27 03:33N 29°44' W 095°13'0 0.0
2014-Jul-27 02:33N 29°44' W 095°13'0 0.0
2014-Jul-27 01:32N 29°44' W 095°13'0 0.0
2014-Jul-27 00:32N 29°44' W 095°13'0 0.0
2014-Jul-26 23:32N 29°44' W 095°13'0 0.0
2014-Jul-26 22:32N 29°44' W 095°13'0 0.0
2014-Jul-26 21:32N 29°44' W 095°13'0 0.0
2014-Jul-26 20:32N 29°44' W 095°13'0 0.0
2014-Jul-26 19:32N 29°44' W 095°13'0 0.0
2014-Jul-26 18:32N 29°44' W 095°13'0 0.0
2014-Jul-26 17:32N 29°44' W 095°13'0 0.0
2014-Jul-26 16:32N 29°44' W 095°13'0 0.0
2014-Jul-26 15:32N 29°44' W 095°13'0 0.0
2014-Jul-26 14:32N 29°44' W 095°13'0 0.0
2014-Jul-26 13:32N 29°44' W 095°13'0 0.0
2014-Jul-26 12:32N 29°44' W 095°13'0 0.0
2014-Jul-26 11:32N 29°44' W 095°13'0 0.0
2014-Jul-26 10:32N 29°44' W 095°13'0 0.0
2014-Jul-26 09:32N 29°44' W 095°13'0 0.0
2014-Jul-26 08:32N 29°44' W 095°13'0 0.0
2014-Jul-26 07:32N 29°44' W 095°13'0 0.0
2014-Jul-26 06:32N 29°44' W 095°13'0 0.0
2014-Jul-26 05:32N 29°44' W 095°13'0 0.0
2014-Jul-26 04:32N 29°44' W 095°13'0 0.0
2014-Jul-26 03:32N 29°44' W 095°13'0 0.0
2014-Jul-26 02:32N 29°44' W 095°13'0 0.0
2014-Jul-26 01:32N 29°44' W 095°13'0 0.0
2014-Jul-26 00:32N 29°44' W 095°13'0 0.0
2014-Jul-25 23:32N 29°44' W 095°13'0 0.0
2014-Jul-25 22:32N 29°44' W 095°13'0 0.0
2014-Jul-25 21:32N 29°44' W 095°13'0 0.0
2014-Jul-25 20:32N 29°44' W 095°13'0 0.0
2014-Jul-25 19:32N 29°44' W 095°13'0 0.0
2014-Jul-25 18:32N 29°44' W 095°13'0 0.0
2014-Jul-25 17:32N 29°44' W 095°13'0 0.0
2014-Jul-25 16:32N 29°44' W 095°13'0 0.0
2014-Jul-25 15:32N 29°44' W 095°13'0 0.0
2014-Jul-25 14:32N 29°44' W 095°13'0 0.0
2014-Jul-25 13:32N 29°44' W 095°13'0 0.0
2014-Jul-25 12:32N 29°44' W 095°13'0 0.0
2014-Jul-25 11:31N 29°44' W 095°13'0 0.0
2014-Jul-25 10:31N 29°44' W 095°13'0 0.0
2014-Jul-25 09:31N 29°44' W 095°13'0 0.0
2014-Jul-25 08:31N 29°44' W 095°13'0 0.0
2014-Jul-25 07:31N 29°44' W 095°13'0 0.0
2014-Jul-25 06:31N 29°44' W 095°13'0 0.0
2014-Jul-25 05:31N 29°44' W 095°13'0 0.0
2014-Jul-25 04:31N 29°44' W 095°13'0 0.0
2014-Jul-25 03:31N 29°44' W 095°13'0 0.0
2014-Jul-25 02:31N 29°44' W 095°13'0 0.0
2014-Jul-25 01:31N 29°44' W 095°13'0 0.0
2014-Jul-25 00:31N 29°44' W 095°13'0 0.0
2014-Jul-24 23:31N 29°44' W 095°13'0 0.0
2014-Jul-24 22:31N 29°44' W 095°13'0 0.0
2014-Jul-24 21:31N 29°44' W 095°13'0 0.0
2014-Jul-24 20:31N 29°44' W 095°13'0 0.0
2014-Jul-24 19:31N 29°44' W 095°13'0 0.0
2014-Jul-24 18:31N 29°44' W 095°13'0 0.0
2014-Jul-24 17:31N 29°44' W 095°13'0 0.0
2014-Jul-24 16:31N 29°44' W 095°13'0 0.0
2014-Jul-24 15:31N 29°44' W 095°13'0 0.0
2014-Jul-24 14:31N 29°44' W 095°13'0 0.0
2014-Jul-24 13:31N 29°44' W 095°13'0 0.0
2014-Jul-24 12:31N 29°44' W 095°13'0 0.0
2014-Jul-24 11:31N 29°44' W 095°13'0 0.0
2014-Jul-24 10:31N 29°44' W 095°13'0 0.0
2014-Jul-24 09:31N 29°44' W 095°13'0 0.0
2014-Jul-24 08:31N 29°44' W 095°13'0 0.0
2014-Jul-24 07:31N 29°44' W 095°13'0 0.0
2014-Jul-24 06:31N 29°44' W 095°13'0 0.0
2014-Jul-24 05:31N 29°44' W 095°13'0 0.0
2014-Jul-24 04:31N 29°44' W 095°13'0 0.0
2014-Jul-24 03:31N 29°44' W 095°13'0 0.0
2014-Jul-24 02:31N 29°44' W 095°13'0 0.0
2014-Jul-24 01:31N 29°44' W 095°13'0 0.0
2014-Jul-24 00:31N 29°44' W 095°13'0 0.0
2014-Jul-23 23:34N 29°44' W 095°13'0 0.0
2014-Jul-23 22:33N 29°44' W 095°13'0 0.0
2014-Jul-23 21:33N 29°44' W 095°13'0 0.0
2014-Jul-23 20:33N 29°44' W 095°13'0 0.0
2014-Jul-23 19:33N 29°44' W 095°13'0 0.0
2014-Jul-23 18:33N 29°44' W 095°13'0 0.0
2014-Jul-23 17:33N 29°44' W 095°13'0 0.0
2014-Jul-23 16:33N 29°44' W 095°13'0 0.0
2014-Jul-23 15:33N 29°44' W 095°13'0 0.0
2014-Jul-23 14:33N 29°44' W 095°13'0 0.0
2014-Jul-23 13:33N 29°44' W 095°13'0 0.0
2014-Jul-23 12:33N 29°44' W 095°13'0 0.0
2014-Jul-23 11:33N 29°44' W 095°13'19921991.7
2014-Jul-23 10:33N 62°56' W 095°13'19921990.6
2014-Jul-23 09:33N 29°44' W 095°13'0 0.0
2014-Jul-23 08:33N 29°44' W 095°13'0 0.0
2014-Jul-23 07:33N 29°44' W 095°13'0 0.0
2014-Jul-23 06:33N 29°44' W 095°13'0 0.0
2014-Jul-23 05:33N 29°44' W 095°13'0 0.1
2014-Jul-23 04:33N 29°44' W 095°13'4 4.0
2014-Jul-23 03:33N 29°44' W 095°08'4 4.4
2014-Jul-23 02:34N 29°44' W 095°03'6 5.6
2014-Jul-23 01:33N 29°40' W 094°59'9 8.6
2014-Jul-23 00:34N 29°33' W 094°54'8 8.1
2014-Jul-22 23:33N 29°25' W 094°50'  

Dump ship's entire track history